Terminal Aerodrome Forecast
Issued by NWS Goodland, KS

Home | Current Version | Previous Version | Text Only | Print | Product List | Glossary On
Versions: 1 2 3 4 5 6 7 8 9 10 11 12 13 14 15 16 17
000
FTUS43 KGLD 212340
TAFGLD
TAF
KGLD 212340Z 2200/2224 18013KT P6SM SCT250
     FM220800 20010KT 3SM BR SCT010
     FM221200 25010KT P6SM VCSH SCT050 BKN100
     FM221800 36010KT P6SM SCT200=

USA.gov is the U.S. government's official web portal to all federal, state and local government web resources and services.